sensor_id;sensor_type;location;lat;lon;timestamp;P1;durP1;ratioP1;P2;durP2;ratioP2
313;SDS011;143;51.634;7.112;2023-07-22T00:01:18;11.93;;;7.03;;
313;SDS011;143;51.634;7.112;2023-07-22T00:03:44;10.97;;;6.83;;
313;SDS011;143;51.634;7.112;2023-07-22T00:06:10;12.20;;;7.77;;
313;SDS011;143;51.634;7.112;2023-07-22T00:08:36;17.47;;;7.70;;
313;SDS011;143;51.634;7.112;2023-07-22T00:11:06;11.73;;;7.30;;
313;SDS011;143;51.634;7.112;2023-07-22T00:13:33;15.10;;;7.67;;
313;SDS011;143;51.634;7.112;2023-07-22T00:15:59;12.10;;;7.40;;
313;SDS011;143;51.634;7.112;2023-07-22T00:18:26;15.37;;;8.17;;
313;SDS011;143;51.634;7.112;2023-07-22T00:20:53;11.83;;;8.10;;
313;SDS011;143;51.634;7.112;2023-07-22T00:23:19;15.27;;;8.23;;
313;SDS011;143;51.634;7.112;2023-07-22T00:25:45;14.33;;;8.70;;
313;SDS011;143;51.634;7.112;2023-07-22T00:28:11;13.33;;;7.87;;
313;SDS011;143;51.634;7.112;2023-07-22T00:30:37;12.90;;;8.27;;
313;SDS011;143;51.634;7.112;2023-07-22T00:33:03;22.03;;;8.33;;
313;SDS011;143;51.634;7.112;2023-07-22T00:35:28;13.57;;;8.13;;
313;SDS011;143;51.634;7.112;2023-07-22T00:37:54;11.43;;;8.30;;
313;SDS011;143;51.634;7.112;2023-07-22T00:40:20;13.13;;;8.30;;
313;SDS011;143;51.634;7.112;2023-07-22T00:42:46;13.00;;;7.53;;
313;SDS011;143;51.634;7.112;2023-07-22T00:45:12;13.53;;;8.40;;
313;SDS011;143;51.634;7.112;2023-07-22T00:47:37;16.67;;;10.30;;
313;SDS011;143;51.634;7.112;2023-07-22T00:50:04;13.83;;;7.63;;
313;SDS011;143;51.634;7.112;2023-07-22T00:52:32;17.47;;;9.67;;
313;SDS011;143;51.634;7.112;2023-07-22T00:54:58;17.63;;;8.23;;
313;SDS011;143;51.634;7.112;2023-07-22T00:57:24;20.70;;;9.83;;
313;SDS011;143;51.634;7.112;2023-07-22T00:59:50;13.87;;;8.70;;
313;SDS011;143;51.634;7.112;2023-07-22T01:02:17;16.30;;;8.70;;
313;SDS011;143;51.634;7.112;2023-07-22T01:04:44;17.10;;;9.20;;
313;SDS011;143;51.634;7.112;2023-07-22T01:07:10;17.23;;;10.47;;
313;SDS011;143;51.634;7.112;2023-07-22T01:09:40;18.70;;;9.40;;
313;SDS011;143;51.634;7.112;2023-07-22T01:12:06;13.47;;;9.00;;
313;SDS011;143;51.634;7.112;2023-07-22T01:14:33;17.47;;;10.23;;
313;SDS011;143;51.634;7.112;2023-07-22T01:17:04;15.33;;;9.60;;
313;SDS011;143;51.634;7.112;2023-07-22T01:19:31;15.40;;;9.77;;
313;SDS011;143;51.634;7.112;2023-07-22T01:22:02;15.07;;;9.50;;
313;SDS011;143;51.634;7.112;2023-07-22T01:24:30;18.83;;;10.73;;
313;SDS011;143;51.634;7.112;2023-07-22T01:26:56;14.07;;;8.93;;
313;SDS011;143;51.634;7.112;2023-07-22T01:29:22;18.23;;;10.07;;
313;SDS011;143;51.634;7.112;2023-07-22T01:31:49;26.57;;;11.60;;
313;SDS011;143;51.634;7.112;2023-07-22T01:34:16;17.77;;;10.23;;
313;SDS011;143;51.634;7.112;2023-07-22T01:36:42;16.43;;;10.57;;
313;SDS011;143;51.634;7.112;2023-07-22T01:39:08;22.00;;;10.40;;
313;SDS011;143;51.634;7.112;2023-07-22T01:41:35;17.47;;;9.60;;
313;SDS011;143;51.634;7.112;2023-07-22T01:44:01;15.30;;;8.40;;
313;SDS011;143;51.634;7.112;2023-07-22T01:46:27;17.40;;;10.37;;
313;SDS011;143;51.634;7.112;2023-07-22T01:48:53;17.80;;;10.43;;
313;SDS011;143;51.634;7.112;2023-07-22T01:51:20;19.30;;;10.63;;
313;SDS011;143;51.634;7.112;2023-07-22T01:53:45;21.03;;;10.30;;
313;SDS011;143;51.634;7.112;2023-07-22T01:56:11;18.60;;;9.50;;
313;SDS011;143;51.634;7.112;2023-07-22T01:58:37;20.67;;;11.50;;
313;SDS011;143;51.634;7.112;2023-07-22T02:01:02;15.03;;;9.20;;
313;SDS011;143;51.634;7.112;2023-07-22T02:03:28;16.03;;;9.30;;
313;SDS011;143;51.634;7.112;2023-07-22T02:06:00;14.87;;;10.10;;
313;SDS011;143;51.634;7.112;2023-07-22T02:08:29;17.67;;;10.00;;
313;SDS011;143;51.634;7.112;2023-07-22T02:11:00;18.47;;;9.80;;
313;SDS011;143;51.634;7.112;2023-07-22T02:13:30;17.80;;;10.20;;
313;SDS011;143;51.634;7.112;2023-07-22T02:15:56;18.63;;;9.80;;
313;SDS011;143;51.634;7.112;2023-07-22T02:18:22;16.80;;;10.10;;
313;SDS011;143;51.634;7.112;2023-07-22T02:20:48;19.47;;;10.23;;
313;SDS011;143;51.634;7.112;2023-07-22T02:23:14;19.63;;;10.00;;
313;SDS011;143;51.634;7.112;2023-07-22T02:25:39;16.80;;;10.77;;
313;SDS011;143;51.634;7.112;2023-07-22T02:28:05;20.60;;;9.17;;
313;SDS011;143;51.634;7.112;2023-07-22T02:30:33;18.00;;;9.47;;
313;SDS011;143;51.634;7.112;2023-07-22T02:33:00;15.77;;;8.67;;
313;SDS011;143;51.634;7.112;2023-07-22T02:35:27;19.53;;;9.40;;
313;SDS011;143;51.634;7.112;2023-07-22T02:37:53;16.70;;;8.67;;
313;SDS011;143;51.634;7.112;2023-07-22T02:40:18;15.97;;;9.27;;
313;SDS011;143;51.634;7.112;2023-07-22T02:42:44;16.00;;;8.23;;
313;SDS011;143;51.634;7.112;2023-07-22T02:45:10;14.17;;;7.93;;
313;SDS011;143;51.634;7.112;2023-07-22T02:47:36;19.93;;;9.57;;
313;SDS011;143;51.634;7.112;2023-07-22T02:50:01;19.20;;;9.10;;
313;SDS011;143;51.634;7.112;2023-07-22T02:52:28;21.77;;;9.70;;
313;SDS011;143;51.634;7.112;2023-07-22T02:55:06;18.37;;;9.53;;
313;SDS011;143;51.634;7.112;2023-07-22T02:57:36;16.57;;;9.80;;
313;SDS011;143;51.634;7.112;2023-07-22T03:00:03;16.00;;;9.20;;
313;SDS011;143;51.634;7.112;2023-07-22T03:02:33;14.67;;;8.20;;
313;SDS011;143;51.634;7.112;2023-07-22T03:04:59;15.63;;;9.33;;
313;SDS011;143;51.634;7.112;2023-07-22T03:07:25;15.30;;;7.60;;
313;SDS011;143;51.634;7.112;2023-07-22T03:09:53;14.87;;;8.30;;
313;SDS011;143;51.634;7.112;2023-07-22T03:12:19;13.17;;;8.23;;
313;SDS011;143;51.634;7.112;2023-07-22T03:14:44;18.90;;;9.90;;
313;SDS011;143;51.634;7.112;2023-07-22T03:17:11;17.37;;;8.83;;
313;SDS011;143;51.634;7.112;2023-07-22T03:19:39;17.67;;;9.13;;
313;SDS011;143;51.634;7.112;2023-07-22T03:22:05;21.73;;;10.47;;
313;SDS011;143;51.634;7.112;2023-07-22T03:24:31;14.40;;;8.50;;
313;SDS011;143;51.634;7.112;2023-07-22T03:26:56;16.87;;;8.83;;
313;SDS011;143;51.634;7.112;2023-07-22T03:29:22;22.93;;;9.33;;
313;SDS011;143;51.634;7.112;2023-07-22T03:31:49;17.10;;;9.30;;
313;SDS011;143;51.634;7.112;2023-07-22T03:34:15;14.10;;;9.03;;
313;SDS011;143;51.634;7.112;2023-07-22T03:36:41;17.30;;;9.10;;
313;SDS011;143;51.634;7.112;2023-07-22T03:39:06;15.20;;;8.70;;
313;SDS011;143;51.634;7.112;2023-07-22T03:41:33;13.13;;;8.87;;
313;SDS011;143;51.634;7.112;2023-07-22T03:43:58;15.27;;;8.90;;
313;SDS011;143;51.634;7.112;2023-07-22T03:46:24;19.97;;;9.23;;
313;SDS011;143;51.634;7.112;2023-07-22T03:48:50;16.97;;;10.10;;
313;SDS011;143;51.634;7.112;2023-07-22T03:51:15;18.33;;;9.70;;
313;SDS011;143;51.634;7.112;2023-07-22T03:53:41;16.73;;;8.90;;
313;SDS011;143;51.634;7.112;2023-07-22T03:56:07;18.10;;;10.60;;
313;SDS011;143;51.634;7.112;2023-07-22T03:58:33;17.17;;;9.73;;
313;SDS011;143;51.634;7.112;2023-07-22T04:00:58;20.83;;;9.73;;
313;SDS011;143;51.634;7.112;2023-07-22T04:03:24;17.13;;;9.63;;
313;SDS011;143;51.634;7.112;2023-07-22T04:05:53;13.90;;;8.37;;
313;SDS011;143;51.634;7.112;2023-07-22T04:08:23;18.50;;;9.40;;
313;SDS011;143;51.634;7.112;2023-07-22T04:10:52;16.80;;;8.93;;
313;SDS011;143;51.634;7.112;2023-07-22T04:13:19;16.50;;;8.63;;
313;SDS011;143;51.634;7.112;2023-07-22T04:15:44;13.67;;;7.90;;
313;SDS011;143;51.634;7.112;2023-07-22T04:18:10;16.40;;;8.07;;
313;SDS011;143;51.634;7.112;2023-07-22T04:20:36;17.30;;;9.03;;
313;SDS011;143;51.634;7.112;2023-07-22T04:23:02;17.60;;;9.30;;
313;SDS011;143;51.634;7.112;2023-07-22T04:25:27;12.80;;;8.07;;
313;SDS011;143;51.634;7.112;2023-07-22T04:27:53;14.60;;;8.50;;
313;SDS011;143;51.634;7.112;2023-07-22T04:30:19;15.77;;;8.77;;
313;SDS011;143;51.634;7.112;2023-07-22T04:32:47;16.17;;;8.07;;
313;SDS011;143;51.634;7.112;2023-07-22T04:35:14;14.10;;;8.03;;
313;SDS011;143;51.634;7.112;2023-07-22T04:37:42;13.73;;;7.63;;
313;SDS011;143;51.634;7.112;2023-07-22T04:40:09;18.30;;;9.20;;
313;SDS011;143;51.634;7.112;2023-07-22T04:42:39;14.77;;;8.00;;
313;SDS011;143;51.634;7.112;2023-07-22T04:45:06;18.70;;;7.90;;
313;SDS011;143;51.634;7.112;2023-07-22T04:47:32;14.47;;;8.10;;
313;SDS011;143;51.634;7.112;2023-07-22T04:49:57;13.63;;;7.77;;
313;SDS011;143;51.634;7.112;2023-07-22T04:52:23;19.67;;;9.13;;
313;SDS011;143;51.634;7.112;2023-07-22T04:54:50;22.30;;;8.70;;
313;SDS011;143;51.634;7.112;2023-07-22T04:57:15;15.77;;;8.23;;
313;SDS011;143;51.634;7.112;2023-07-22T04:59:42;20.43;;;8.80;;
313;SDS011;143;51.634;7.112;2023-07-22T05:02:07;20.40;;;9.30;;
313;SDS011;143;51.634;7.112;2023-07-22T05:04:33;17.60;;;8.27;;
313;SDS011;143;51.634;7.112;2023-07-22T05:06:59;12.40;;;7.70;;
313;SDS011;143;51.634;7.112;2023-07-22T05:09:25;17.73;;;8.47;;
313;SDS011;143;51.634;7.112;2023-07-22T05:11:51;15.70;;;9.33;;
313;SDS011;143;51.634;7.112;2023-07-22T05:14:16;15.70;;;8.10;;
313;SDS011;143;51.634;7.112;2023-07-22T05:16:42;16.93;;;9.43;;
313;SDS011;143;51.634;7.112;2023-07-22T05:19:08;25.93;;;10.10;;
313;SDS011;143;51.634;7.112;2023-07-22T05:21:33;22.80;;;9.40;;
313;SDS011;143;51.634;7.112;2023-07-22T05:23:59;19.70;;;9.23;;
313;SDS011;143;51.634;7.112;2023-07-22T05:26:25;19.50;;;10.57;;
313;SDS011;143;51.634;7.112;2023-07-22T05:28:50;15.27;;;8.50;;
313;SDS011;143;51.634;7.112;2023-07-22T05:31:16;13.70;;;8.37;;
313;SDS011;143;51.634;7.112;2023-07-22T05:33:42;19.37;;;9.17;;
313;SDS011;143;51.634;7.112;2023-07-22T05:36:07;21.60;;;8.80;;
313;SDS011;143;51.634;7.112;2023-07-22T05:38:33;15.23;;;8.87;;
313;SDS011;143;51.634;7.112;2023-07-22T05:40:58;21.30;;;10.20;;
313;SDS011;143;51.634;7.112;2023-07-22T05:43:24;16.33;;;8.83;;
313;SDS011;143;51.634;7.112;2023-07-22T05:45:50;17.50;;;9.23;;
313;SDS011;143;51.634;7.112;2023-07-22T05:48:16;24.83;;;9.53;;
313;SDS011;143;51.634;7.112;2023-07-22T05:50:41;15.90;;;7.63;;
313;SDS011;143;51.634;7.112;2023-07-22T05:53:07;15.10;;;7.70;;
313;SDS011;143;51.634;7.112;2023-07-22T05:55:33;19.03;;;9.27;;
313;SDS011;143;51.634;7.112;2023-07-22T05:57:58;20.83;;;9.30;;
313;SDS011;143;51.634;7.112;2023-07-22T06:00:30;16.40;;;8.90;;
313;SDS011;143;51.634;7.112;2023-07-22T06:02:56;13.17;;;7.60;;
313;SDS011;143;51.634;7.112;2023-07-22T06:05:22;17.47;;;9.40;;
313;SDS011;143;51.634;7.112;2023-07-22T06:07:48;16.20;;;8.70;;
313;SDS011;143;51.634;7.112;2023-07-22T06:10:13;15.70;;;8.60;;
313;SDS011;143;51.634;7.112;2023-07-22T06:12:39;16.33;;;8.17;;
313;SDS011;143;51.634;7.112;2023-07-22T06:15:06;17.73;;;8.30;;
313;SDS011;143;51.634;7.112;2023-07-22T06:17:32;14.83;;;9.10;;
313;SDS011;143;51.634;7.112;2023-07-22T06:19:58;16.30;;;8.40;;
313;SDS011;143;51.634;7.112;2023-07-22T06:22:23;16.37;;;8.57;;
313;SDS011;143;51.634;7.112;2023-07-22T06:24:49;16.03;;;8.77;;
313;SDS011;143;51.634;7.112;2023-07-22T06:27:15;28.67;;;8.33;;
313;SDS011;143;51.634;7.112;2023-07-22T06:29:40;11.73;;;8.07;;
313;SDS011;143;51.634;7.112;2023-07-22T06:32:06;14.63;;;7.60;;
313;SDS011;143;51.634;7.112;2023-07-22T06:34:32;19.30;;;8.53;;
313;SDS011;143;51.634;7.112;2023-07-22T06:36:58;16.93;;;8.43;;
313;SDS011;143;51.634;7.112;2023-07-22T06:39:23;14.60;;;8.77;;
313;SDS011;143;51.634;7.112;2023-07-22T06:41:49;16.30;;;8.57;;
313;SDS011;143;51.634;7.112;2023-07-22T06:44:14;18.30;;;8.03;;
313;SDS011;143;51.634;7.112;2023-07-22T06:46:40;16.50;;;8.30;;
313;SDS011;143;51.634;7.112;2023-07-22T06:49:06;15.37;;;8.67;;
313;SDS011;143;51.634;7.112;2023-07-22T06:51:32;20.03;;;9.43;;
313;SDS011;143;51.634;7.112;2023-07-22T06:53:57;17.70;;;8.20;;
313;SDS011;143;51.634;7.112;2023-07-22T06:56:23;18.80;;;8.80;;
313;SDS011;143;51.634;7.112;2023-07-22T06:58:49;16.97;;;8.63;;
313;SDS011;143;51.634;7.112;2023-07-22T07:01:16;21.40;;;9.23;;
313;SDS011;143;51.634;7.112;2023-07-22T07:03:41;17.20;;;8.37;;
313;SDS011;143;51.634;7.112;2023-07-22T07:06:07;14.57;;;8.33;;
313;SDS011;143;51.634;7.112;2023-07-22T07:08:33;25.70;;;9.13;;
313;SDS011;143;51.634;7.112;2023-07-22T07:10:59;23.47;;;9.13;;
313;SDS011;143;51.634;7.112;2023-07-22T07:13:26;30.50;;;9.13;;
313;SDS011;143;51.634;7.112;2023-07-22T07:15:51;19.30;;;9.50;;
313;SDS011;143;51.634;7.112;2023-07-22T07:18:17;22.83;;;9.13;;
313;SDS011;143;51.634;7.112;2023-07-22T07:20:43;23.30;;;11.10;;
313;SDS011;143;51.634;7.112;2023-07-22T07:23:09;18.53;;;9.47;;
313;SDS011;143;51.634;7.112;2023-07-22T07:25:35;16.73;;;9.17;;
313;SDS011;143;51.634;7.112;2023-07-22T07:28:01;18.87;;;9.63;;
313;SDS011;143;51.634;7.112;2023-07-22T07:30:26;22.97;;;9.87;;
313;SDS011;143;51.634;7.112;2023-07-22T07:32:54;17.10;;;9.40;;
313;SDS011;143;51.634;7.112;2023-07-22T07:35:22;23.30;;;9.10;;
313;SDS011;143;51.634;7.112;2023-07-22T07:37:51;16.80;;;8.33;;
313;SDS011;143;51.634;7.112;2023-07-22T07:40:17;13.13;;;7.87;;
313;SDS011;143;51.634;7.112;2023-07-22T07:42:45;14.30;;;7.83;;
313;SDS011;143;51.634;7.112;2023-07-22T07:45:12;13.77;;;8.50;;
313;SDS011;143;51.634;7.112;2023-07-22T07:47:39;17.03;;;9.23;;
313;SDS011;143;51.634;7.112;2023-07-22T07:50:06;15.30;;;8.10;;
313;SDS011;143;51.634;7.112;2023-07-22T07:52:34;15.73;;;8.60;;
313;SDS011;143;51.634;7.112;2023-07-22T07:55:00;16.37;;;7.77;;
313;SDS011;143;51.634;7.112;2023-07-22T07:57:27;19.30;;;7.90;;
313;SDS011;143;51.634;7.112;2023-07-22T07:59:53;13.77;;;7.20;;
313;SDS011;143;51.634;7.112;2023-07-22T08:02:20;13.23;;;7.70;;
313;SDS011;143;51.634;7.112;2023-07-22T08:04:50;15.43;;;7.47;;
313;SDS011;143;51.634;7.112;2023-07-22T08:07:22;14.70;;;7.73;;
313;SDS011;143;51.634;7.112;2023-07-22T08:09:49;13.33;;;6.70;;
313;SDS011;143;51.634;7.112;2023-07-22T08:12:17;21.50;;;7.37;;
313;SDS011;143;51.634;7.112;2023-07-22T08:14:43;20.53;;;8.03;;
313;SDS011;143;51.634;7.112;2023-07-22T08:17:10;14.23;;;7.63;;
313;SDS011;143;51.634;7.112;2023-07-22T08:19:36;15.43;;;8.13;;
313;SDS011;143;51.634;7.112;2023-07-22T08:22:04;15.50;;;7.27;;
313;SDS011;143;51.634;7.112;2023-07-22T08:24:31;13.20;;;7.10;;
313;SDS011;143;51.634;7.112;2023-07-22T08:26:58;11.87;;;6.63;;
313;SDS011;143;51.634;7.112;2023-07-22T08:29:25;25.00;;;7.80;;
313;SDS011;143;51.634;7.112;2023-07-22T08:31:50;11.90;;;6.80;;
313;SDS011;143;51.634;7.112;2023-07-22T08:34:16;13.73;;;7.10;;
313;SDS011;143;51.634;7.112;2023-07-22T08:36:42;15.13;;;7.87;;
313;SDS011;143;51.634;7.112;2023-07-22T08:39:09;16.40;;;7.03;;
313;SDS011;143;51.634;7.112;2023-07-22T08:41:35;14.83;;;8.00;;
313;SDS011;143;51.634;7.112;2023-07-22T08:44:02;11.30;;;7.00;;
313;SDS011;143;51.634;7.112;2023-07-22T08:46:30;10.80;;;6.00;;
313;SDS011;143;51.634;7.112;2023-07-22T08:48:59;14.57;;;6.97;;
313;SDS011;143;51.634;7.112;2023-07-22T08:51:26;17.83;;;7.17;;
313;SDS011;143;51.634;7.112;2023-07-22T08:53:56;14.27;;;7.13;;
313;SDS011;143;51.634;7.112;2023-07-22T08:56:25;9.23;;;5.80;;
313;SDS011;143;51.634;7.112;2023-07-22T08:58:52;18.50;;;6.47;;
313;SDS011;143;51.634;7.112;2023-07-22T09:01:18;14.40;;;6.63;;
313;SDS011;143;51.634;7.112;2023-07-22T09:03:45;11.60;;;6.13;;
313;SDS011;143;51.634;7.112;2023-07-22T09:06:13;10.40;;;6.10;;
313;SDS011;143;51.634;7.112;2023-07-22T09:08:39;11.97;;;7.20;;
313;SDS011;143;51.634;7.112;2023-07-22T09:11:07;13.97;;;6.43;;
313;SDS011;143;51.634;7.112;2023-07-22T09:13:35;9.50;;;5.70;;
313;SDS011;143;51.634;7.112;2023-07-22T09:16:04;13.23;;;6.30;;
313;SDS011;143;51.634;7.112;2023-07-22T09:18:33;11.47;;;6.47;;
313;SDS011;143;51.634;7.112;2023-07-22T09:21:02;10.80;;;5.40;;
313;SDS011;143;51.634;7.112;2023-07-22T09:23:35;13.13;;;6.37;;
313;SDS011;143;51.634;7.112;2023-07-22T09:26:09;12.00;;;6.07;;
313;SDS011;143;51.634;7.112;2023-07-22T09:28:47;13.47;;;5.90;;
313;SDS011;143;51.634;7.112;2023-07-22T09:31:20;13.47;;;6.73;;
313;SDS011;143;51.634;7.112;2023-07-22T09:33:47;12.53;;;6.47;;
313;SDS011;143;51.634;7.112;2023-07-22T09:36:13;11.23;;;5.50;;
313;SDS011;143;51.634;7.112;2023-07-22T09:38:40;10.03;;;5.90;;
313;SDS011;143;51.634;7.112;2023-07-22T09:41:06;10.60;;;6.20;;
313;SDS011;143;51.634;7.112;2023-07-22T09:43:37;13.50;;;6.83;;
313;SDS011;143;51.634;7.112;2023-07-22T09:46:10;16.30;;;7.20;;
313;SDS011;143;51.634;7.112;2023-07-22T09:48:40;13.27;;;5.90;;
313;SDS011;143;51.634;7.112;2023-07-22T09:51:13;14.90;;;6.53;;
313;SDS011;143;51.634;7.112;2023-07-22T09:53:47;15.00;;;7.00;;
313;SDS011;143;51.634;7.112;2023-07-22T09:56:26;13.13;;;6.37;;
313;SDS011;143;51.634;7.112;2023-07-22T09:58:53;11.30;;;6.40;;
313;SDS011;143;51.634;7.112;2023-07-22T10:01:20;13.00;;;6.57;;
313;SDS011;143;51.634;7.112;2023-07-22T10:03:53;10.77;;;7.23;;
313;SDS011;143;51.634;7.112;2023-07-22T10:06:20;13.03;;;5.80;;
313;SDS011;143;51.634;7.112;2023-07-22T10:08:58;14.37;;;7.03;;
313;SDS011;143;51.634;7.112;2023-07-22T10:11:33;12.40;;;5.80;;
313;SDS011;143;51.634;7.112;2023-07-22T10:14:01;12.70;;;5.57;;
313;SDS011;143;51.634;7.112;2023-07-22T10:16:27;9.43;;;5.43;;
313;SDS011;143;51.634;7.112;2023-07-22T10:18:55;8.00;;;4.40;;
313;SDS011;143;51.634;7.112;2023-07-22T10:21:21;8.43;;;4.43;;
313;SDS011;143;51.634;7.112;2023-07-22T10:23:48;8.30;;;5.00;;
313;SDS011;143;51.634;7.112;2023-07-22T10:26:15;4.83;;;3.57;;
313;SDS011;143;51.634;7.112;2023-07-22T10:28:45;11.73;;;5.10;;
313;SDS011;143;51.634;7.112;2023-07-22T10:31:12;5.77;;;3.73;;
313;SDS011;143;51.634;7.112;2023-07-22T10:33:38;8.40;;;4.40;;
313;SDS011;143;51.634;7.112;2023-07-22T10:38:34;6.90;;;4.43;;
313;SDS011;143;51.634;7.112;2023-07-22T10:41:01;7.77;;;4.33;;
313;SDS011;143;51.634;7.112;2023-07-22T10:43:54;6.73;;;3.80;;
313;SDS011;143;51.634;7.112;2023-07-22T10:46:34;4.63;;;3.50;;
313;SDS011;143;51.634;7.112;2023-07-22T10:51:41;8.63;;;3.70;;
313;SDS011;143;51.634;7.112;2023-07-22T10:54:12;8.57;;;3.60;;
313;SDS011;143;51.634;7.112;2023-07-22T10:56:44;7.60;;;4.03;;
313;SDS011;143;51.634;7.112;2023-07-22T10:59:10;7.00;;;3.97;;
313;SDS011;143;51.634;7.112;2023-07-22T11:01:37;10.13;;;4.30;;
313;SDS011;143;51.634;7.112;2023-07-22T11:04:08;10.77;;;4.40;;
313;SDS011;143;51.634;7.112;2023-07-22T11:07:04;5.00;;;3.53;;
313;SDS011;143;51.634;7.112;2023-07-22T11:14:32;8.40;;;4.23;;
313;SDS011;143;51.634;7.112;2023-07-22T11:17:06;6.10;;;4.07;;
313;SDS011;143;51.634;7.112;2023-07-22T11:19:33;7.17;;;3.40;;
313;SDS011;143;51.634;7.112;2023-07-22T11:21:59;9.90;;;4.40;;
313;SDS011;143;51.634;7.112;2023-07-22T11:24:26;6.57;;;3.73;;
313;SDS011;143;51.634;7.112;2023-07-22T11:26:52;10.20;;;3.80;;
313;SDS011;143;51.634;7.112;2023-07-22T11:29:19;4.70;;;3.40;;
313;SDS011;143;51.634;7.112;2023-07-22T11:31:46;5.33;;;2.97;;
313;SDS011;143;51.634;7.112;2023-07-22T11:34:19;11.33;;;3.20;;
313;SDS011;143;51.634;7.112;2023-07-22T11:36:55;4.60;;;3.10;;
313;SDS011;143;51.634;7.112;2023-07-22T11:39:27;7.17;;;3.17;;
313;SDS011;143;51.634;7.112;2023-07-22T11:41:59;5.77;;;3.47;;
313;SDS011;143;51.634;7.112;2023-07-22T11:44:30;6.63;;;3.60;;
313;SDS011;143;51.634;7.112;2023-07-22T11:46:58;5.73;;;2.90;;
313;SDS011;143;51.634;7.112;2023-07-22T11:49:29;6.90;;;2.53;;
313;SDS011;143;51.634;7.112;2023-07-22T11:52:01;4.80;;;3.00;;
313;SDS011;143;51.634;7.112;2023-07-22T11:54:43;4.60;;;2.93;;
313;SDS011;143;51.634;7.112;2023-07-22T11:57:16;4.50;;;3.13;;
313;SDS011;143;51.634;7.112;2023-07-22T11:59:44;6.80;;;3.10;;
313;SDS011;143;51.634;7.112;2023-07-22T12:02:13;5.17;;;3.20;;
313;SDS011;143;51.634;7.112;2023-07-22T12:04:40;5.60;;;2.87;;
313;SDS011;143;51.634;7.112;2023-07-22T12:07:06;4.70;;;2.87;;
313;SDS011;143;51.634;7.112;2023-07-22T12:09:48;4.87;;;3.17;;
313;SDS011;143;51.634;7.112;2023-07-22T12:12:14;5.40;;;2.30;;
313;SDS011;143;51.634;7.112;2023-07-22T12:14:40;5.10;;;2.37;;
313;SDS011;143;51.634;7.112;2023-07-22T12:17:07;3.93;;;2.10;;
313;SDS011;143;51.634;7.112;2023-07-22T12:19:34;6.93;;;2.30;;
313;SDS011;143;51.634;7.112;2023-07-22T12:22:00;7.70;;;3.00;;
313;SDS011;143;51.634;7.112;2023-07-22T12:24:27;4.70;;;2.90;;
313;SDS011;143;51.634;7.112;2023-07-22T12:26:53;4.63;;;2.10;;
313;SDS011;143;51.634;7.112;2023-07-22T12:29:19;6.23;;;2.43;;
313;SDS011;143;51.634;7.112;2023-07-22T12:31:44;4.97;;;2.40;;
313;SDS011;143;51.634;7.112;2023-07-22T12:34:10;7.50;;;2.60;;
313;SDS011;143;51.634;7.112;2023-07-22T12:36:36;4.67;;;2.90;;
313;SDS011;143;51.634;7.112;2023-07-22T12:39:03;14.30;;;2.83;;
313;SDS011;143;51.634;7.112;2023-07-22T12:41:29;8.73;;;2.80;;
313;SDS011;143;51.634;7.112;2023-07-22T12:43:55;4.03;;;2.60;;
313;SDS011;143;51.634;7.112;2023-07-22T12:46:21;2.47;;;1.90;;
313;SDS011;143;51.634;7.112;2023-07-22T12:48:46;4.13;;;2.63;;
313;SDS011;143;51.634;7.112;2023-07-22T12:51:12;4.67;;;2.70;;
313;SDS011;143;51.634;7.112;2023-07-22T12:53:38;5.77;;;2.57;;
313;SDS011;143;51.634;7.112;2023-07-22T12:56:04;4.87;;;3.17;;
313;SDS011;143;51.634;7.112;2023-07-22T12:58:31;5.40;;;2.10;;
313;SDS011;143;51.634;7.112;2023-07-22T13:00:58;4.03;;;1.90;;
313;SDS011;143;51.634;7.112;2023-07-22T13:03:24;3.73;;;2.17;;
313;SDS011;143;51.634;7.112;2023-07-22T13:05:50;4.63;;;2.40;;
313;SDS011;143;51.634;7.112;2023-07-22T13:08:16;4.27;;;2.57;;
313;SDS011;143;51.634;7.112;2023-07-22T13:10:42;4.73;;;2.57;;
313;SDS011;143;51.634;7.112;2023-07-22T13:13:10;3.37;;;1.90;;
313;SDS011;143;51.634;7.112;2023-07-22T13:15:36;3.97;;;2.20;;
313;SDS011;143;51.634;7.112;2023-07-22T13:18:03;4.53;;;2.20;;
313;SDS011;143;51.634;7.112;2023-07-22T13:20:29;5.50;;;2.30;;
313;SDS011;143;51.634;7.112;2023-07-22T13:22:55;3.77;;;2.20;;
313;SDS011;143;51.634;7.112;2023-07-22T13:25:20;4.27;;;2.70;;
313;SDS011;143;51.634;7.112;2023-07-22T13:27:46;4.00;;;2.23;;
313;SDS011;143;51.634;7.112;2023-07-22T13:30:12;4.50;;;2.40;;
313;SDS011;143;51.634;7.112;2023-07-22T13:32:38;5.03;;;2.73;;
313;SDS011;143;51.634;7.112;2023-07-22T13:35:05;6.70;;;2.70;;
313;SDS011;143;51.634;7.112;2023-07-22T13:37:31;3.70;;;2.70;;
313;SDS011;143;51.634;7.112;2023-07-22T13:39:56;4.07;;;2.40;;
313;SDS011;143;51.634;7.112;2023-07-22T13:42:23;3.90;;;2.67;;
313;SDS011;143;51.634;7.112;2023-07-22T13:44:49;3.70;;;2.77;;
313;SDS011;143;51.634;7.112;2023-07-22T13:47:15;3.70;;;2.60;;
313;SDS011;143;51.634;7.112;2023-07-22T13:49:40;5.20;;;2.87;;
313;SDS011;143;51.634;7.112;2023-07-22T13:52:06;6.93;;;2.80;;
313;SDS011;143;51.634;7.112;2023-07-22T13:54:32;4.90;;;2.87;;
313;SDS011;143;51.634;7.112;2023-07-22T13:56:58;3.97;;;2.40;;
313;SDS011;143;51.634;7.112;2023-07-22T13:59:24;4.37;;;2.40;;
313;SDS011;143;51.634;7.112;2023-07-22T14:01:49;5.73;;;2.50;;
313;SDS011;143;51.634;7.112;2023-07-22T14:04:15;4.90;;;2.50;;
313;SDS011;143;51.634;7.112;2023-07-22T14:06:41;7.50;;;2.73;;
313;SDS011;143;51.634;7.112;2023-07-22T14:09:06;3.43;;;2.50;;
313;SDS011;143;51.634;7.112;2023-07-22T14:11:32;14.67;;;3.27;;
313;SDS011;143;51.634;7.112;2023-07-22T14:13:58;3.47;;;2.30;;
313;SDS011;143;51.634;7.112;2023-07-22T14:16:23;5.53;;;2.37;;
313;SDS011;143;51.634;7.112;2023-07-22T14:18:49;4.57;;;2.77;;
313;SDS011;143;51.634;7.112;2023-07-22T14:21:16;6.30;;;2.63;;
313;SDS011;143;51.634;7.112;2023-07-22T14:23:42;3.57;;;2.43;;
313;SDS011;143;51.634;7.112;2023-07-22T14:26:09;8.70;;;2.97;;
313;SDS011;143;51.634;7.112;2023-07-22T14:28:34;13.13;;;2.30;;
313;SDS011;143;51.634;7.112;2023-07-22T14:31:00;5.33;;;2.87;;
313;SDS011;143;51.634;7.112;2023-07-22T14:33:26;8.13;;;3.00;;
313;SDS011;143;51.634;7.112;2023-07-22T14:35:51;5.37;;;2.43;;
313;SDS011;143;51.634;7.112;2023-07-22T14:38:18;4.83;;;2.70;;
313;SDS011;143;51.634;7.112;2023-07-22T14:40:43;3.97;;;2.57;;
313;SDS011;143;51.634;7.112;2023-07-22T14:43:09;4.17;;;2.60;;
313;SDS011;143;51.634;7.112;2023-07-22T14:45:39;5.07;;;2.87;;
313;SDS011;143;51.634;7.112;2023-07-22T14:48:05;5.10;;;2.73;;
313;SDS011;143;51.634;7.112;2023-07-22T14:50:31;5.43;;;2.70;;
313;SDS011;143;51.634;7.112;2023-07-22T14:52:57;6.43;;;2.27;;
313;SDS011;143;51.634;7.112;2023-07-22T14:55:24;4.13;;;2.47;;
313;SDS011;143;51.634;7.112;2023-07-22T14:57:50;9.00;;;3.10;;
313;SDS011;143;51.634;7.112;2023-07-22T15:00:16;3.47;;;2.43;;
313;SDS011;143;51.634;7.112;2023-07-22T15:02:43;4.30;;;2.80;;
313;SDS011;143;51.634;7.112;2023-07-22T15:05:09;8.33;;;2.40;;
313;SDS011;143;51.634;7.112;2023-07-22T15:07:36;6.20;;;3.00;;
313;SDS011;143;51.634;7.112;2023-07-22T15:10:05;5.40;;;2.80;;
313;SDS011;143;51.634;7.112;2023-07-22T15:12:32;5.20;;;2.73;;
313;SDS011;143;51.634;7.112;2023-07-22T15:14:58;7.33;;;2.70;;
313;SDS011;143;51.634;7.112;2023-07-22T15:17:26;5.00;;;2.67;;
313;SDS011;143;51.634;7.112;2023-07-22T15:19:54;4.03;;;2.57;;
313;SDS011;143;51.634;7.112;2023-07-22T15:22:20;7.83;;;2.80;;
313;SDS011;143;51.634;7.112;2023-07-22T15:24:46;5.60;;;2.70;;
313;SDS011;143;51.634;7.112;2023-07-22T15:27:12;4.03;;;2.50;;
313;SDS011;143;51.634;7.112;2023-07-22T15:29:39;4.90;;;2.53;;
313;SDS011;143;51.634;7.112;2023-07-22T15:32:06;5.83;;;2.53;;
313;SDS011;143;51.634;7.112;2023-07-22T15:34:32;4.33;;;2.50;;
313;SDS011;143;51.634;7.112;2023-07-22T15:36:59;4.70;;;2.70;;
313;SDS011;143;51.634;7.112;2023-07-22T15:39:26;4.00;;;2.80;;
313;SDS011;143;51.634;7.112;2023-07-22T15:41:52;3.93;;;2.47;;
313;SDS011;143;51.634;7.112;2023-07-22T15:44:18;14.80;;;2.50;;